Time;durP1;ratioP1;P1;durP2;ratioP2;P2;SDS_P1;SDS_P2;PMS_P1;PMS_P2;Temp;Humidity;BMP_temperature;BMP_pressure;BME280_temperature;BME280_humidity;BME280_pressure;Samples;Min_cycle;Max_cycle;Signal;HPM_P1;HPM_P2
2022/12/09 00:00:18;;;;;;;34.42;15.32;;;2.50;99.90;;;;;;5048660;28;20033;-68
2022/12/09 00:02:43;;;;;;;38.47;16.20;;;2.50;99.90;;;;;;5049102;28;20160;-69
2022/12/09 00:05:09;;;;;;;35.20;14.57;;;2.50;99.90;;;;;;5048239;28;20021;-70
2022/12/09 00:07:35;;;;;;;31.15;13.80;;;2.50;99.90;;;;;;5048460;28;20060;-68
2022/12/09 00:10:02;;;;;;;41.78;16.10;;;2.50;99.90;;;;;;5047430;28;20021;-68
2022/12/09 00:12:28;;;;;;;33.63;14.95;;;2.50;99.90;;;;;;5029807;28;20128;-69
2022/12/09 00:14:53;;;;;;;36.95;15.15;;;2.50;99.90;;;;;;5047358;28;20696;-68
2022/12/09 00:17:19;;;;;;;28.92;14.18;;;2.50;99.90;;;;;;5048331;28;20021;-69
2022/12/09 08:52:44;;;;;;;63.65;22.33;;;0.70;99.90;;;;;;1350899;26;20049;-72
2022/12/09 08:55:10;;;;;;;119.68;23.77;;;0.60;99.90;;;;;;5027744;28;20417;-70
2022/12/09 08:57:35;;;;;;;105.93;22.48;;;0.60;99.90;;;;;;5031911;28;20030;-69
2022/12/09 09:00:02;;;;;;;165.70;26.58;;;0.50;99.90;;;;;;5029489;28;20056;-68
2022/12/09 09:02:28;;;;;;;107.50;26.65;;;0.40;99.90;;;;;;5030348;28;20053;-69
2022/12/09 09:04:59;;;;;;;251.02;28.40;;;0.50;99.90;;;;;;5028780;28;20026;-69
2022/12/09 09:07:25;;;;;;;203.65;26.33;;;0.50;99.90;;;;;;5026794;28;20128;-68
2022/12/09 09:09:51;;;;;;;180.32;26.90;;;0.50;99.90;;;;;;5029629;28;20423;-69
2022/12/09 09:12:16;;;;;;;197.52;27.92;;;0.50;99.90;;;;;;5025016;28;20137;-69
2022/12/09 09:14:42;;;;;;;137.40;27.08;;;0.50;99.90;;;;;;5016891;28;20098;-68
2022/12/09 09:17:08;;;;;;;307.73;45.10;;;0.50;99.90;;;;;;5030983;28;20038;-70
2022/12/09 09:19:33;;;;;;;573.33;36.15;;;0.60;99.90;;;;;;5031286;28;20034;-71
2022/12/09 09:21:59;;;;;;;506.00;32.47;;;0.50;99.90;;;;;;5018627;28;20052;-69
2022/12/09 09:24:25;;;;;;;578.97;39.20;;;0.50;99.90;;;;;;5033460;28;20018;-69
2022/12/09 09:26:51;;;;;;;245.57;26.50;;;0.50;99.90;;;;;;5029806;28;20034;-70
2022/12/09 09:29:19;;;;;;;183.38;24.50;;;0.50;99.90;;;;;;5029485;28;20085;-69
2022/12/09 09:31:47;;;;;;;363.10;30.30;;;0.50;99.90;;;;;;5029938;28;20109;-68
2022/12/09 09:34:15;;;;;;;245.48;25.05;;;0.60;99.90;;;;;;5030126;28;20033;-70
2022/12/09 09:36:41;;;;;;;281.35;25.02;;;0.60;99.90;;;;;;5020979;28;20025;-69
2022/12/09 09:39:07;;;;;;;291.13;27.85;;;0.60;99.90;;;;;;5026886;28;20038;-69
2022/12/09 09:41:53;;;;;;;193.10;23.23;;;0.50;99.90;;;;;;5014131;28;20138;-70
2022/12/09 09:44:33;;;;;;;474.02;28.63;;;0.60;99.90;;;;;;5031128;28;20057;-69
2022/12/09 09:47:00;;;;;;;316.20;25.52;;;0.60;99.90;;;;;;5028807;28;20033;-69
2022/12/09 09:49:42;;;;;;;371.42;28.60;;;0.60;99.90;;;;;;5030401;28;20030;-69
2022/12/09 09:52:18;;;;;;;182.25;25.58;;;0.60;99.90;;;;;;5031493;28;20124;-69
2022/12/09 09:54:44;;;;;;;368.92;30.38;;;0.70;99.90;;;;;;5030073;28;20034;-69
2022/12/09 09:57:23;;;;;;;353.27;31.13;;;0.70;99.90;;;;;;5031047;28;20025;-70
2022/12/09 10:00:05;;;;;;;439.67;33.85;;;0.70;99.90;;;;;;5029666;28;20041;-70
2022/12/09 10:03:08;;;;;;;343.13;31.35;;;0.80;99.90;;;;;;5030564;28;20037;-69
2022/12/09 10:05:45;;;;;;;262.20;27.67;;;0.80;99.90;;;;;;5018544;28;20045;-71
2022/12/09 10:08:26;;;;;;;416.38;32.63;;;0.90;99.90;;;;;;5030879;28;20030;-69
2022/12/09 10:11:20;;;;;;;330.23;29.52;;;0.90;99.90;;;;;;5012642;28;20044;-69
2022/12/09 10:13:46;;;;;;;109.05;25.65;;;1.00;99.90;;;;;;4995047;28;20053;-71
2022/12/09 10:16:33;;;;;;;251.75;28.73;;;1.00;99.90;;;;;;5030125;28;20029;-69
2022/12/09 10:19:22;;;;;;;202.25;26.58;;;1.00;99.90;;;;;;5031092;28;20026;-69
2022/12/09 10:21:50;;;;;;;332.38;31.95;;;1.10;99.90;;;;;;5030890;28;20060;-69
2022/12/09 10:24:24;;;;;;;261.65;27.85;;;1.10;99.90;;;;;;5012847;28;20026;-69
2022/12/09 10:27:02;;;;;;;112.00;28.67;;;1.10;99.90;;;;;;5030987;28;20606;-69
2022/12/09 10:29:40;;;;;;;130.32;30.00;;;1.20;99.90;;;;;;5028158;28;20032;-69
2022/12/09 10:32:16;;;;;;;348.42;33.45;;;1.20;99.90;;;;;;5031539;28;20022;-69
2022/12/09 10:34:42;;;;;;;270.55;32.83;;;1.20;99.90;;;;;;5030170;28;20033;-70
2022/12/09 10:37:33;;;;;;;229.82;31.02;;;1.20;99.90;;;;;;5029448;28;20058;-71
2022/12/09 10:40:11;;;;;;;276.02;35.08;;;1.30;99.90;;;;;;5033676;28;20033;-68
2022/12/09 10:45:45;;;;;;;296.27;35.55;;;1.30;99.90;;;;;;5035893;28;20064;-69
2022/12/09 10:48:33;;;;;;;495.75;38.55;;;1.30;99.90;;;;;;5034156;28;20022;-68
2022/12/09 10:51:17;;;;;;;152.95;31.42;;;1.30;99.90;;;;;;5031827;28;20057;-70
2022/12/09 10:53:45;;;;;;;;;;;1.20;99.90;;;;;;5031619;28;20049;-69
2022/12/09 10:56:21;;;;;;;428.25;36.58;;;1.30;99.90;;;;;;5035790;28;19913;-69
2022/12/09 10:58:46;;;;;;;182.35;30.02;;;1.30;99.90;;;;;;5033607;28;20129;-69
2022/12/09 11:01:14;;;;;;;204.00;30.70;;;1.30;99.90;;;;;;5034971;28;20514;-67
2022/12/09 11:03:50;;;;;;;266.52;33.25;;;1.30;99.90;;;;;;5034224;28;20021;-70
2022/12/09 11:06:21;;;;;;;248.98;33.45;;;1.30;99.90;;;;;;5034787;28;20040;-70
2022/12/09 11:08:58;;;;;;;313.15;35.80;;;1.30;99.90;;;;;;5033078;28;20350;-69
2022/12/09 11:11:45;;;;;;;350.15;34.40;;;1.30;99.90;;;;;;5032143;28;20125;-70
2022/12/09 11:14:36;;;;;;;294.30;35.58;;;1.30;99.90;;;;;;5034291;28;20457;-68
2022/12/09 11:17:36;;;;;;;347.65;35.35;;;1.30;99.90;;;;;;5023832;28;20038;-68
2022/12/09 11:20:04;;;;;;;327.30;36.55;;;1.30;99.90;;;;;;5032625;28;20056;-69
2022/12/09 11:22:39;;;;;;;181.40;33.67;;;1.30;99.90;;;;;;5033594;28;20082;-68
2022/12/09 11:25:10;;;;;;;211.02;35.53;;;1.30;99.90;;;;;;5015863;28;20029;-68
2022/12/09 11:27:39;;;;;;;200.18;34.13;;;1.30;99.90;;;;;;5035512;28;20033;-70
2022/12/09 11:30:21;;;;;;;274.30;33.70;;;1.30;99.90;;;;;;5035138;28;20033;-68
2022/12/09 11:33:13;;;;;;;188.73;33.38;;;1.30;99.90;;;;;;5034247;28;20044;-69
2022/12/09 11:35:42;;;;;;;358.92;36.45;;;1.20;99.90;;;;;;5034068;28;20045;-69
2022/12/09 11:38:30;;;;;;;108.22;31.40;;;1.30;99.90;;;;;;5034739;28;20041;-69
2022/12/09 11:40:59;;;;;;;213.05;34.10;;;1.30;99.90;;;;;;5020076;28;20045;-67
2022/12/09 11:43:42;;;;;;;159.20;34.63;;;1.30;99.90;;;;;;5033186;28;20041;-70
2022/12/09 11:46:22;;;;;;;156.00;32.80;;;1.30;99.90;;;;;;5033263;28;20030;-71
2022/12/09 11:48:51;;;;;;;202.32;41.35;;;1.40;99.90;;;;;;5032309;28;20289;-69
2022/12/09 11:51:25;;;;;;;166.70;44.80;;;1.40;99.90;;;;;;5032215;28;20033;-69
2022/12/09 11:53:57;;;;;;;319.30;36.15;;;1.50;99.90;;;;;;5031758;28;20148;-69
2022/12/09 11:56:26;;;;;;;269.08;35.90;;;1.50;99.90;;;;;;5026743;28;20041;-69
2022/12/09 11:59:05;;;;;;;145.48;33.03;;;1.50;99.90;;;;;;5030119;28;20029;-69
2022/12/09 12:02:04;;;;;;;262.65;34.28;;;1.50;99.90;;;;;;5033469;28;20093;-70
2022/12/09 12:04:33;;;;;;;81.63;29.02;;;1.50;99.90;;;;;;5033246;28;20029;-68
2022/12/09 12:07:22;;;;;;;77.22;28.40;;;1.40;99.90;;;;;;5032386;28;20033;-68
2022/12/09 12:09:56;;;;;;;79.68;28.70;;;1.40;99.90;;;;;;5011057;28;20149;-70
2022/12/09 12:12:51;;;;;;;111.75;29.45;;;1.40;99.90;;;;;;5033572;28;20048;-69
2022/12/09 12:15:32;;;;;;;76.90;27.92;;;1.40;99.90;;;;;;4990801;28;20084;-68
2022/12/09 12:18:02;;;;;;;81.15;29.35;;;1.40;99.90;;;;;;5029385;28;20021;-67
2022/12/09 12:20:56;;;;;;;88.00;33.25;;;1.30;99.90;;;;;;5032459;28;20109;-70
2022/12/09 12:23:25;;;;;;;;;;;1.30;99.90;;;;;;5026287;28;20057;-69
2022/12/09 12:26:06;;;;;;;83.68;29.48;;;1.40;99.90;;;;;;5032273;28;19936;-69
2022/12/09 12:28:35;;;;;;;90.97;30.23;;;1.40;99.90;;;;;;5029898;28;20426;-69
2022/12/09 12:31:15;;;;;;;79.47;26.73;;;1.40;99.90;;;;;;5031493;28;20124;-68
2022/12/09 12:34:11;;;;;;;87.03;31.25;;;1.40;99.90;;;;;;5032835;28;20029;-67
2022/12/09 12:36:57;;;;;;;85.25;30.30;;;1.30;99.90;;;;;;5031245;28;20392;-66
2022/12/09 12:39:49;;;;;;;95.20;32.00;;;1.30;99.90;;;;;;5032396;28;20034;-68
2022/12/09 12:42:27;;;;;;;74.30;20.95;;;1.30;99.90;;;;;;5005298;28;20033;-67
2022/12/09 12:47:54;;;;;;;91.82;29.45;;;1.20;99.90;;;;;;5030687;28;20090;-68
2022/12/09 12:50:43;;;;;;;96.30;33.95;;;1.20;99.90;;;;;;5032460;28;20032;-68
2022/12/09 12:53:42;;;;;;;107.57;30.30;;;1.20;99.90;;;;;;5013675;28;20050;-70
2022/12/09 12:56:21;;;;;;;90.30;30.98;;;1.20;99.90;;;;;;5029000;28;20048;-67
2022/12/09 12:59:10;;;;;;;86.82;33.80;;;1.20;99.90;;;;;;5031129;28;20037;-69
2022/12/09 13:01:50;;;;;;;101.93;30.38;;;1.20;99.90;;;;;;5030395;28;20022;-68
2022/12/09 13:04:22;;;;;;;97.45;30.35;;;1.20;99.90;;;;;;5030697;28;20064;-69
2022/12/09 13:06:50;;;;;;;98.82;29.88;;;1.20;99.90;;;;;;5030351;28;20033;-66
2022/12/09 13:09:19;;;;;;;145.60;28.50;;;1.20;99.90;;;;;;5011537;28;20044;-66
2022/12/09 13:12:06;;;;;;;135.98;34.75;;;1.20;99.90;;;;;;5030012;28;20111;-68
2022/12/09 13:14:41;;;;;;;117.82;29.73;;;1.20;99.90;;;;;;5031774;28;20044;-68
2022/12/09 13:17:12;;;;;;;80.97;26.20;;;1.20;99.90;;;;;;5030203;28;20026;-68
2022/12/09 13:19:46;;;;;;;83.03;27.98;;;1.20;99.90;;;;;;5012867;28;20021;-67
2022/12/09 13:22:21;;;;;;;74.80;25.02;;;1.20;99.90;;;;;;5027262;28;20025;-67
2022/12/09 13:25:39;;;;;;;96.72;34.58;;;1.20;99.90;;;;;;5116124;27;20473;-68
2022/12/09 13:28:10;;;;;;;81.30;27.10;;;1.20;99.90;;;;;;5114521;28;20044;-71
2022/12/09 13:30:51;;;;;;;87.35;29.25;;;1.10;99.90;;;;;;5117599;28;20028;-67
2022/12/09 13:33:35;;;;;;;94.85;32.75;;;1.10;99.90;;;;;;5118007;28;20024;-67
2022/12/09 13:36:14;;;;;;;78.13;28.60;;;1.10;99.90;;;;;;5115665;28;20035;-70
2022/12/09 13:38:41;;;;;;;72.93;26.85;;;1.20;99.90;;;;;;5116690;28;20095;-66
2022/12/09 13:41:25;;;;;;;81.10;27.08;;;1.20;99.90;;;;;;5116110;28;20047;-69
2022/12/09 13:43:52;;;;;;;82.63;29.38;;;1.20;99.90;;;;;;5117082;28;20028;-67
2022/12/09 13:46:23;;;;;;;77.35;27.52;;;1.20;99.90;;;;;;5112331;28;21451;-67
2022/12/09 13:48:51;;;;;;;84.95;29.85;;;1.20;99.90;;;;;;5115864;28;20099;-67
2022/12/09 13:51:17;;;;;;;83.80;29.75;;;1.20;99.90;;;;;;5112662;28;20024;-67
2022/12/09 13:53:59;;;;;;;101.95;32.35;;;1.20;99.90;;;;;;5110894;28;20058;-69
2022/12/09 13:56:31;;;;;;;85.93;32.08;;;1.20;99.90;;;;;;5111820;28;20552;-69
2022/12/09 13:59:39;;;;;;;92.25;31.75;;;1.20;99.90;;;;;;5115275;28;20719;-68
2022/12/09 14:02:11;;;;;;;84.32;30.45;;;1.20;99.90;;;;;;5116963;28;20050;-71
2022/12/09 14:04:57;;;;;;;82.07;28.85;;;1.30;99.90;;;;;;5113672;28;20066;-69
2022/12/09 14:07:33;;;;;;;85.60;29.30;;;1.30;99.90;;;;;;5117665;28;20422;-68
2022/12/09 14:09:59;;;;;;;96.85;31.83;;;1.30;99.90;;;;;;5116801;28;20550;-69
2022/12/09 14:12:25;;;;;;;87.40;30.55;;;1.30;99.90;;;;;;5115528;28;20020;-69
2022/12/09 14:14:57;;;;;;;85.75;31.00;;;1.30;99.90;;;;;;5117316;28;20028;-68
2022/12/09 14:17:29;;;;;;;75.18;27.83;;;1.30;99.90;;;;;;5114510;28;20068;-68
2022/12/09 14:20:03;;;;;;;78.63;29.02;;;1.30;99.90;;;;;;5116829;28;20754;-68
2022/12/09 14:22:34;;;;;;;83.97;29.83;;;1.30;99.90;;;;;;5116239;28;20032;-68
2022/12/09 14:25:24;;;;;;;85.95;30.65;;;1.30;99.90;;;;;;5117361;28;20111;-68
2022/12/09 14:28:08;;;;;;;89.90;31.10;;;1.40;99.90;;;;;;5115735;28;20035;-68
2022/12/09 14:30:34;;;;;;;86.47;31.20;;;1.30;99.90;;;;;;5116988;28;20047;-70
2022/12/09 14:33:18;;;;;;;89.45;32.15;;;1.30;99.90;;;;;;5116953;28;20028;-69
2022/12/09 14:35:49;;;;;;;90.45;31.48;;;1.40;99.90;;;;;;5103931;28;20032;-69
2022/12/09 14:38:33;;;;;;;82.45;31.63;;;1.40;99.90;;;;;;5101792;28;20020;-69
2022/12/09 14:41:26;;;;;;;91.57;35.25;;;1.40;99.90;;;;;;5098097;28;20031;-68
2022/12/09 14:44:20;;;;;;;80.13;34.30;;;1.30;99.90;;;;;;5100614;28;20052;-68
2022/12/09 14:46:49;;;;;;;81.05;30.50;;;1.40;99.90;;;;;;5099607;28;20042;-68
2022/12/09 14:49:21;;;;;;;97.82;38.22;;;1.30;99.90;;;;;;5102774;28;20142;-69
2022/12/09 14:51:55;;;;;;;91.75;32.00;;;1.40;99.90;;;;;;5103106;28;20020;-68
2022/12/09 14:54:30;;;;;;;90.28;31.25;;;1.40;99.90;;;;;;5100458;28;20036;-67
2022/12/09 14:56:58;;;;;;;69.43;27.30;;;1.40;99.90;;;;;;5102938;28;20024;-68
2022/12/09 14:59:26;;;;;;;78.63;29.90;;;1.30;99.90;;;;;;5102009;28;20388;-68
2022/12/09 15:01:58;;;;;;;74.93;29.63;;;1.40;99.90;;;;;;5102406;28;20024;-68
2022/12/09 15:04:29;;;;;;;83.88;31.17;;;1.30;99.90;;;;;;5100896;28;20043;-68
2022/12/09 15:07:11;;;;;;;75.45;30.00;;;1.40;99.90;;;;;;5101936;28;20044;-69
2022/12/09 15:09:46;;;;;;;78.70;31.08;;;1.40;99.90;;;;;;5101350;28;20106;-72
2022/12/09 15:12:12;;;;;;;75.18;29.65;;;1.40;99.90;;;;;;5099567;28;20117;-69
2022/12/09 15:14:43;;;;;;;78.18;30.67;;;1.30;99.90;;;;;;5102344;28;20068;-68
2022/12/09 15:17:21;;;;;;;81.68;31.50;;;1.40;99.90;;;;;;5100683;28;20024;-68
2022/12/09 15:19:47;;;;;;;83.05;31.83;;;1.30;99.90;;;;;;5102823;28;20020;-70
2022/12/09 15:22:21;;;;;;;88.85;34.35;;;1.40;99.90;;;;;;5103097;28;20034;-68
2022/12/09 15:24:47;;;;;;;87.15;31.70;;;1.40;99.90;;;;;;5102009;28;20131;-68
2022/12/09 15:27:24;;;;;;;82.88;32.20;;;1.40;99.90;;;;;;5102467;28;20092;-68
2022/12/09 15:29:50;;;;;;;83.18;31.23;;;1.40;99.90;;;;;;5100827;28;20059;-70
2022/12/09 15:32:29;;;;;;;81.18;32.45;;;1.40;99.90;;;;;;5102862;28;20027;-69
2022/12/09 15:35:13;;;;;;;117.35;40.45;;;1.40;99.90;;;;;;5101719;28;20031;-69
2022/12/09 15:37:39;;;;;;;92.03;33.97;;;1.40;99.90;;;;;;5101561;28;20099;-67
2022/12/09 15:40:09;;;;;;;76.13;29.42;;;1.40;99.90;;;;;;5100235;28;20064;-69
2022/12/09 15:42:39;;;;;;;74.20;27.90;;;1.40;99.90;;;;;;5102428;28;20042;-70
2022/12/09 15:45:15;;;;;;;80.10;30.85;;;1.30;99.90;;;;;;5100599;28;20044;-70
2022/12/09 15:47:48;;;;;;;82.90;33.15;;;1.30;99.90;;;;;;5101566;28;20047;-69
2022/12/09 15:50:24;;;;;;;75.68;30.70;;;1.30;99.90;;;;;;5101881;28;20024;-69
2022/12/09 15:52:51;;;;;;;84.38;31.27;;;1.30;99.90;;;;;;5101690;28;21359;-68
2022/12/09 15:55:22;;;;;;;84.97;32.60;;;1.30;99.90;;;;;;5099249;28;20043;-69
2022/12/09 15:57:51;;;;;;;83.03;33.33;;;1.40;99.90;;;;;;5099930;28;20032;-68
2022/12/09 16:00:17;;;;;;;80.57;32.65;;;1.40;99.90;;;;;;5102196;28;20077;-68
2022/12/09 16:02:44;;;;;;;82.30;31.45;;;1.40;99.90;;;;;;5102650;28;20024;-71
2022/12/09 16:05:10;;;;;;;70.13;25.65;;;1.40;99.90;;;;;;5102449;28;20027;-70
2022/12/09 16:07:36;;;;;;;81.18;29.77;;;1.40;99.90;;;;;;5102543;28;20024;-69
2022/12/09 16:10:07;;;;;;;80.85;30.17;;;1.40;99.90;;;;;;5102667;28;20046;-70
2022/12/09 16:12:34;;;;;;;73.40;27.98;;;1.30;99.90;;;;;;5101906;28;20012;-68
2022/12/09 16:15:00;;;;;;;83.40;30.75;;;1.30;99.90;;;;;;5098751;28;20744;-68
2022/12/09 16:17:32;;;;;;;85.60;31.73;;;1.30;99.90;;;;;;5100610;28;20023;-67
2022/12/09 16:19:57;;;;;;;87.28;29.73;;;1.30;99.90;;;;;;5100922;28;20084;-67
2022/12/09 16:22:30;;;;;;;102.40;35.78;;;1.30;99.90;;;;;;5102841;28;20040;-68
2022/12/09 16:25:13;;;;;;;81.45;33.67;;;1.30;99.90;;;;;;5102481;28;20044;-68
2022/12/09 16:27:44;;;;;;;75.43;29.37;;;1.40;99.90;;;;;;5102756;28;20061;-67
2022/12/09 16:30:19;;;;;;;77.72;29.05;;;1.40;99.90;;;;;;5102278;28;20050;-68
2022/12/09 16:32:48;;;;;;;80.00;31.50;;;1.40;99.90;;;;;;5101775;28;20024;-68
2022/12/09 16:35:34;;;;;;;83.80;32.88;;;1.30;99.90;;;;;;5100092;28;20020;-68
2022/12/09 16:38:08;;;;;;;90.32;33.53;;;1.30;99.90;;;;;;5101676;28;20031;-68
2022/12/09 16:40:43;;;;;;;85.13;32.58;;;1.40;99.90;;;;;;5101574;28;20054;-67
2022/12/09 16:43:15;;;;;;;87.55;32.47;;;1.40;99.90;;;;;;5101011;28;20043;-69
2022/12/09 16:45:42;;;;;;;80.15;32.30;;;1.40;99.90;;;;;;5094893;28;20089;-69
2022/12/09 16:48:09;;;;;;;99.65;37.35;;;1.40;99.90;;;;;;5101411;28;20386;-68
2022/12/09 16:50:41;;;;;;;95.63;34.67;;;1.50;99.90;;;;;;5100896;28;20017;-69
2022/12/09 16:53:13;;;;;;;87.88;34.45;;;1.50;99.90;;;;;;5095174;28;20028;-69
2022/12/09 16:55:47;;;;;;;113.25;42.78;;;1.50;99.90;;;;;;5100621;28;20024;-69
2022/12/09 16:58:13;;;;;;;109.65;39.88;;;1.50;99.90;;;;;;5093243;28;20025;-69
2022/12/09 17:00:38;;;;;;;114.88;42.00;;;1.50;99.90;;;;;;5100665;28;20047;-70
2022/12/09 17:03:33;;;;;;;104.47;40.50;;;1.50;99.90;;;;;;5096910;28;20074;-68
2022/12/09 17:05:58;;;;;;;92.40;36.42;;;1.50;99.90;;;;;;5098359;28;20175;-68
2022/12/09 17:08:24;;;;;;;94.72;35.47;;;1.50;99.90;;;;;;5100606;28;20036;-68
2022/12/09 17:10:50;;;;;;;96.95;34.80;;;1.50;99.90;;;;;;5101621;28;20028;-68
2022/12/09 17:13:16;;;;;;;99.88;33.35;;;1.50;99.90;;;;;;5101468;28;20021;-69
2022/12/09 17:15:42;;;;;;;86.75;31.80;;;1.50;99.90;;;;;;5101940;28;20020;-69
2022/12/09 17:18:09;;;;;;;85.70;33.17;;;1.50;99.90;;;;;;5100820;28;20087;-70
2022/12/09 17:20:36;;;;;;;84.32;34.10;;;1.50;99.90;;;;;;5099799;28;20376;-69
2022/12/09 17:23:03;;;;;;;88.75;34.25;;;1.50;99.90;;;;;;5100125;28;20091;-69
2022/12/09 17:25:31;;;;;;;88.47;32.60;;;1.50;99.90;;;;;;5099578;28;20024;-68
2022/12/09 17:28:02;;;;;;;95.40;33.67;;;1.50;99.90;;;;;;5100374;28;20023;-67
2022/12/09 17:30:28;;;;;;;89.05;33.65;;;1.50;99.90;;;;;;5100899;28;20020;-68
2022/12/09 17:32:53;;;;;;;84.18;32.65;;;1.60;99.90;;;;;;5102134;28;20035;-67
2022/12/09 17:35:19;;;;;;;88.00;33.85;;;1.60;99.90;;;;;;5101762;28;20020;-68
2022/12/09 17:37:44;;;;;;;81.18;33.17;;;1.60;99.90;;;;;;5101335;28;20072;-69
2022/12/09 17:40:10;;;;;;;82.68;32.05;;;1.60;99.90;;;;;;5099521;28;20024;-70
2022/12/09 17:42:36;;;;;;;83.82;32.95;;;1.60;99.90;;;;;;5100642;28;20028;-70
2022/12/09 17:45:03;;;;;;;86.30;32.10;;;1.60;99.90;;;;;;5100688;28;20043;-69
2022/12/09 17:47:28;;;;;;;96.10;33.20;;;1.60;99.90;;;;;;5100419;28;20034;-69
2022/12/09 17:49:54;;;;;;;81.65;30.90;;;1.50;99.90;;;;;;5100973;28;20055;-68
2022/12/09 17:52:19;;;;;;;88.93;33.38;;;1.50;99.90;;;;;;5101021;28;20403;-69
2022/12/09 17:54:46;;;;;;;80.35;31.02;;;1.50;99.90;;;;;;5100599;28;20028;-69
2022/12/09 17:57:12;;;;;;;90.57;31.77;;;1.40;99.90;;;;;;5100968;28;20356;-69
2022/12/09 17:59:38;;;;;;;83.10;30.90;;;1.50;99.90;;;;;;5100696;28;20009;-70
2022/12/09 18:02:04;;;;;;;84.85;31.42;;;1.40;99.90;;;;;;5100481;28;20095;-70
2022/12/09 18:04:31;;;;;;;83.65;31.25;;;1.50;99.90;;;;;;5096043;28;20056;-68
2022/12/09 18:06:57;;;;;;;84.22;30.67;;;1.40;99.90;;;;;;5099890;28;20028;-69
2022/12/09 18:09:23;;;;;;;85.55;32.20;;;1.40;99.90;;;;;;5099762;28;20039;-69
2022/12/09 18:11:50;;;;;;;94.30;32.75;;;1.40;99.90;;;;;;5101613;28;20669;-69
2022/12/09 18:14:16;;;;;;;92.30;31.98;;;1.40;99.90;;;;;;5104197;28;20072;-69
2022/12/09 18:16:45;;;;;;;85.18;32.05;;;1.40;99.90;;;;;;5104419;28;20024;-69
2022/12/09 18:19:17;;;;;;;86.18;34.75;;;1.40;99.90;;;;;;5101771;28;20020;-69
2022/12/09 18:21:43;;;;;;;91.03;33.15;;;1.40;99.90;;;;;;5099571;28;20048;-70
2022/12/09 18:24:22;;;;;;;86.78;31.02;;;1.40;99.90;;;;;;5100455;28;20123;-71
2022/12/09 18:26:48;;;;;;;79.50;29.63;;;1.40;99.90;;;;;;5098601;28;20104;-69
2022/12/09 18:29:14;;;;;;;90.88;32.92;;;1.40;99.90;;;;;;5101819;28;20040;-70
2022/12/09 18:31:41;;;;;;;92.30;32.47;;;1.40;99.90;;;;;;5098148;28;20505;-69
2022/12/09 18:34:08;;;;;;;91.40;30.08;;;1.40;99.90;;;;;;5094370;28;21505;-69
2022/12/09 18:36:34;;;;;;;86.88;32.00;;;1.40;99.90;;;;;;5098542;28;20032;-70
2022/12/09 18:38:59;;;;;;;76.00;31.38;;;1.40;99.90;;;;;;5103603;28;20078;-69
2022/12/09 18:41:29;;;;;;;80.75;30.63;;;1.50;99.90;;;;;;5102530;28;20028;-69
2022/12/09 18:43:57;;;;;;;77.18;28.27;;;1.50;99.90;;;;;;5103162;28;20610;-70
2022/12/09 18:46:29;;;;;;;79.90;30.65;;;1.40;99.90;;;;;;5102507;28;20020;-69
2022/12/09 18:48:57;;;;;;;76.97;29.58;;;1.40;99.90;;;;;;5102889;28;20028;-68
2022/12/09 18:51:23;;;;;;;79.15;29.70;;;1.40;99.90;;;;;;5100403;28;20472;-69
2022/12/09 18:53:49;;;;;;;78.75;28.92;;;1.40;99.90;;;;;;5102560;28;20032;-69
2022/12/09 18:56:16;;;;;;;81.47;28.55;;;1.30;99.90;;;;;;5103960;28;20031;-69
2022/12/09 18:58:42;;;;;;;79.60;29.30;;;1.30;99.90;;;;;;5103131;28;20031;-70
2022/12/09 19:01:24;;;;;;;84.15;29.75;;;1.30;99.90;;;;;;5104179;28;20024;-69
2022/12/09 19:03:52;;;;;;;87.50;31.48;;;1.20;99.90;;;;;;5102734;28;20036;-69
2022/12/09 19:06:21;;;;;;;83.65;29.45;;;1.20;99.90;;;;;;5102581;28;20016;-69
2022/12/09 19:08:52;;;;;;;85.05;28.90;;;1.20;99.90;;;;;;5102189;28;20044;-68
2022/12/09 19:11:19;;;;;;;92.65;30.38;;;1.20;99.90;;;;;;5102669;28;20052;-69
2022/12/09 19:13:45;;;;;;;79.88;28.70;;;1.20;99.90;;;;;;5100922;28;20035;-68
2022/12/09 19:16:11;;;;;;;93.45;29.92;;;1.20;99.90;;;;;;5102772;28;20028;-68
2022/12/09 19:18:36;;;;;;;81.20;29.10;;;1.20;99.90;;;;;;5103802;28;20064;-69
2022/12/09 19:21:07;;;;;;;94.93;29.83;;;1.10;99.90;;;;;;5103046;28;20107;-68
2022/12/09 19:23:35;;;;;;;73.45;27.20;;;1.10;99.90;;;;;;5101415;28;20044;-68
2022/12/09 19:26:00;;;;;;;82.18;28.88;;;1.10;99.90;;;;;;5101244;28;20039;-68
2022/12/09 19:28:26;;;;;;;93.05;30.10;;;1.10;99.90;;;;;;5102542;28;20036;-68
2022/12/09 19:30:52;;;;;;;79.75;28.77;;;1.10;99.90;;;;;;5102493;28;20099;-69
2022/12/09 19:33:17;;;;;;;87.78;29.60;;;1.10;99.90;;;;;;5099288;28;20030;-69
2022/12/09 19:35:43;;;;;;;83.22;28.65;;;1.10;99.90;;;;;;5099314;28;20020;-69
2022/12/09 19:38:09;;;;;;;84.75;29.92;;;1.20;99.90;;;;;;5099481;28;20032;-69
2022/12/09 19:40:36;;;;;;;83.30;27.80;;;1.20;99.90;;;;;;5100677;28;20044;-70
2022/12/09 19:43:01;;;;;;;85.15;30.15;;;1.20;99.90;;;;;;5098306;28;20104;-69
2022/12/09 19:45:27;;;;;;;87.32;30.08;;;1.20;99.90;;;;;;5101137;28;20060;-69
2022/12/09 19:47:53;;;;;;;82.93;29.30;;;1.20;99.90;;;;;;5102393;28;20412;-68
2022/12/09 19:50:18;;;;;;;86.30;29.23;;;1.20;99.90;;;;;;5102299;28;20031;-69
2022/12/09 19:52:44;;;;;;;84.43;29.02;;;1.20;99.90;;;;;;5098778;28;20047;-70
2022/12/09 19:55:10;;;;;;;80.90;26.17;;;1.20;99.90;;;;;;5099083;28;20097;-71
2022/12/09 19:57:36;;;;;;;71.07;25.35;;;1.20;99.90;;;;;;5100617;28;20028;-71
2022/12/09 20:00:03;;;;;;;78.03;25.50;;;1.10;99.90;;;;;;5101852;28;20100;-69
2022/12/09 20:02:28;;;;;;;76.85;26.92;;;1.10;99.90;;;;;;5101919;28;20031;-69
2022/12/09 20:04:54;;;;;;;77.53;26.58;;;1.00;99.90;;;;;;5101976;28;20028;-69
2022/12/09 20:07:20;;;;;;;83.93;28.92;;;1.00;99.90;;;;;;5100570;28;20070;-67
2022/12/09 20:09:46;;;;;;;81.32;29.48;;;0.90;99.90;;;;;;5099695;28;20054;-69
2022/12/09 20:12:12;;;;;;;87.38;28.30;;;0.90;99.90;;;;;;5101569;28;20073;-69
2022/12/09 20:14:38;;;;;;;92.50;29.45;;;1.00;99.90;;;;;;5101006;28;20019;-68
2022/12/09 20:17:04;;;;;;;77.97;29.63;;;1.00;99.90;;;;;;5098777;28;20028;-68
2022/12/09 20:19:30;;;;;;;70.75;25.48;;;1.00;99.90;;;;;;5101736;28;20073;-69
2022/12/09 20:21:56;;;;;;;78.20;27.92;;;1.00;99.90;;;;;;5100733;28;20394;-68
2022/12/09 20:24:22;;;;;;;82.57;30.42;;;1.00;99.90;;;;;;5101647;28;20056;-69
2022/12/09 20:26:48;;;;;;;71.43;24.95;;;1.00;99.90;;;;;;5101551;28;20031;-69
2022/12/09 20:29:13;;;;;;;82.85;27.10;;;1.00;99.90;;;;;;5102535;28;20028;-68
2022/12/09 20:31:41;;;;;;;84.88;26.88;;;1.00;99.90;;;;;;5099338;28;20068;-68
2022/12/09 20:34:11;;;;;;;77.18;25.23;;;1.00;99.90;;;;;;5100641;28;20559;-71
2022/12/09 20:36:40;;;;;;;75.68;26.75;;;1.00;99.90;;;;;;5097568;28;20058;-70
2022/12/09 20:39:11;;;;;;;78.72;25.30;;;1.00;99.90;;;;;;5101654;28;20081;-70
2022/12/09 20:41:38;;;;;;;66.20;25.02;;;1.00;99.90;;;;;;5101823;28;20119;-69
2022/12/09 20:44:03;;;;;;;69.15;26.08;;;0.90;99.90;;;;;;5101607;28;20047;-68
2022/12/09 20:46:31;;;;;;;85.80;26.83;;;0.90;99.90;;;;;;5100914;28;20080;-69
2022/12/09 20:48:57;;;;;;;71.45;25.08;;;0.90;99.90;;;;;;5100412;28;20039;-68
2022/12/09 20:51:26;;;;;;;78.03;27.05;;;0.90;99.90;;;;;;5099631;28;20472;-69
2022/12/09 20:53:52;;;;;;;76.80;26.05;;;0.90;99.90;;;;;;5101297;28;20008;-69
2022/12/09 20:56:19;;;;;;;78.20;27.17;;;1.00;99.90;;;;;;5099023;28;20081;-68
2022/12/09 20:58:47;;;;;;;78.28;26.33;;;1.00;99.90;;;;;;5100587;28;20027;-70
2022/12/09 21:01:31;;;;;;;77.25;25.40;;;1.00;99.90;;;;;;5098007;28;20058;-71
2022/12/09 21:03:58;;;;;;;78.45;27.05;;;1.10;99.90;;;;;;5095340;28;20036;-70
2022/12/09 21:06:28;;;;;;;77.20;25.92;;;1.10;99.90;;;;;;5098792;28;20024;-70
2022/12/09 21:08:54;;;;;;;72.30;26.77;;;1.10;99.90;;;;;;5098730;28;20019;-71
2022/12/09 21:11:24;;;;;;;73.10;26.98;;;1.10;99.90;;;;;;5097835;28;20038;-70
2022/12/09 21:14:01;;;;;;;75.88;26.25;;;1.10;99.90;;;;;;5098142;28;20091;-69
2022/12/09 21:16:29;;;;;;;73.43;27.25;;;1.20;99.90;;;;;;5098773;28;20146;-70
2022/12/09 21:18:57;;;;;;;72.63;26.83;;;1.20;99.90;;;;;;5097800;28;20104;-68
2022/12/09 21:21:25;;;;;;;71.78;24.27;;;1.20;99.90;;;;;;5096843;28;20028;-70
2022/12/09 21:23:53;;;;;;;75.75;24.38;;;1.10;99.90;;;;;;5097952;28;20043;-70
2022/12/09 21:26:20;;;;;;;71.18;24.50;;;1.20;99.90;;;;;;5099570;28;20020;-69
2022/12/09 21:28:46;;;;;;;70.10;25.63;;;1.20;99.90;;;;;;5099918;28;20027;-70
2022/12/09 21:31:22;;;;;;;64.90;24.65;;;1.20;99.90;;;;;;5098821;28;20513;-71
2022/12/09 21:33:49;;;;;;;74.03;27.15;;;1.20;99.90;;;;;;5100286;28;20024;-69
2022/12/09 21:36:17;;;;;;;74.13;25.70;;;1.20;99.90;;;;;;5099536;28;20016;-71
2022/12/09 21:38:43;;;;;;;71.05;25.35;;;1.20;99.90;;;;;;5100021;28;20100;-70